createdAt,value
2023-03-16T00:00:50.690Z,100697.11
2023-03-16T00:05:56.288Z,100702.58
2023-03-16T00:11:00.574Z,100707.34
2023-03-16T00:16:05.812Z,100710.80
2023-03-16T00:21:10.569Z,100713.88
2023-03-16T00:26:15.349Z,100722.25
2023-03-16T00:31:20.618Z,100724.73
2023-03-16T00:36:24.870Z,100728.10
2023-03-16T00:41:29.274Z,100730.73
2023-03-16T00:46:34.648Z,100731.06
2023-03-16T06:59:59.952Z,100959.88
2023-03-16T07:05:05.931Z,100969.08
2023-03-16T07:10:17.678Z,100969.79
2023-03-16T07:15:22.299Z,100976.21
2023-03-16T07:20:29.371Z,100977.05
2023-03-16T07:25:34.697Z,100981.89
2023-03-16T07:30:39.021Z,100985.47
2023-03-16T07:35:45.221Z,100987.02
2023-03-16T07:40:49.325Z,100992.35
2023-03-16T07:45:57.849Z,100996.66
2023-03-16T07:51:03.067Z,100994.69
2023-03-16T07:56:09.054Z,100992.70
2023-03-16T08:01:14.113Z,101001.32
2023-03-16T08:06:18.908Z,101002.50
2023-03-16T08:11:25.622Z,100999.03
2023-03-16T08:16:37.022Z,100999.21
2023-03-16T08:22:00.283Z,101005.84
2023-03-16T08:27:08.282Z,101009.92
2023-03-16T08:32:31.446Z,101019.50
2023-03-16T08:37:35.402Z,101014.30
2023-03-16T08:42:39.909Z,101020.97
2023-03-16T08:47:46.215Z,101023.85
2023-03-16T08:52:51.467Z,101032.78
2023-03-16T08:57:55.417Z,101030.41
2023-03-16T09:03:01.156Z,101031.30
2023-03-16T09:08:07.006Z,101032.05
2023-03-16T09:13:11.721Z,101029.86
2023-03-16T09:18:16.657Z,101026.44
2023-03-16T09:23:23.626Z,101029.02
2023-03-16T09:28:28.866Z,101022.77
2023-03-16T09:33:34.736Z,101025.63
2023-03-16T09:38:39.697Z,101028.14
2023-03-16T09:43:49.762Z,101029.34
2023-03-16T09:48:56.193Z,101029.42
2023-03-16T09:54:04.499Z,101032.66
2023-03-16T09:59:18.564Z,101033.60
2023-03-16T10:04:47.473Z,101037.12
2023-03-16T10:10:11.585Z,101041.45
2023-03-16T10:15:18.892Z,101044.61
2023-03-16T10:20:23.930Z,101049.02
2023-03-16T10:25:54.565Z,101046.02
2023-03-16T10:31:00.887Z,101046.33
2023-03-16T10:36:16.011Z,101042.23
2023-03-16T10:41:23.528Z,101043.64
2023-03-16T10:46:29.239Z,101035.66
2023-03-16T10:51:36.488Z,101036.02
2023-03-16T10:56:40.599Z,101032.89
2023-03-16T11:01:50.323Z,101036.25
2023-03-16T11:06:58.184Z,101037.27
2023-03-16T11:12:14.636Z,101031.58
2023-03-16T11:17:34.344Z,101021.87
2023-03-16T11:22:38.896Z,101017.71
2023-03-16T11:28:28.447Z,101015.09
2023-03-16T11:33:35.284Z,101009.67
2023-03-16T11:38:46.543Z,101012.88
2023-03-16T11:43:57.224Z,101012.23
2023-03-16T11:49:19.437Z,101005.86
2023-03-16T11:54:52.119Z,101007.52
2023-03-16T12:00:02.532Z,101006.80
2023-03-16T12:05:54.958Z,101001.98
2023-03-16T12:11:07.315Z,100990.07
2023-03-16T12:16:27.492Z,100988.23
2023-03-16T12:21:39.617Z,100985.84
2023-03-16T12:26:45.106Z,100987.40
2023-03-16T12:32:18.148Z,100975.34
2023-03-16T12:37:53.088Z,100973.95
2023-03-16T12:43:34.364Z,100974.41
2023-03-16T12:48:49.128Z,100972.48
2023-03-16T12:53:55.660Z,100978.61
2023-03-16T12:59:01.883Z,100974.77
2023-03-16T13:04:15.953Z,100979.48
2023-03-16T13:09:24.696Z,100978.98
2023-03-16T13:14:43.576Z,100974.20
2023-03-16T13:20:04.258Z,100979.45
2023-03-16T13:25:13.548Z,100981.84
2023-03-16T13:30:29.166Z,100978.10
2023-03-16T13:35:33.457Z,100974.63
2023-03-16T13:40:46.614Z,100975.13
2023-03-16T13:45:51.151Z,100975.17
2023-03-16T13:51:00.080Z,100980.52
2023-03-16T13:56:06.248Z,100976.20
2023-03-16T14:01:31.404Z,100980.49
2023-03-16T14:06:37.314Z,100971.77
2023-03-16T14:11:43.234Z,100966.56
2023-03-16T14:16:48.139Z,100965.25
2023-03-16T14:21:52.569Z,100963.43
2023-03-16T14:26:58.340Z,100957.02
2023-03-16T14:32:22.299Z,100950.22
2023-03-16T14:37:36.020Z,100941.41
2023-03-16T14:42:42.847Z,100937.28
2023-03-16T14:47:50.374Z,100927.89
2023-03-16T14:52:59.493Z,100930.41
2023-03-16T14:58:05.075Z,100936.30
2023-03-16T15:03:16.508Z,100938.55
2023-03-16T15:08:28.071Z,100935.71
2023-03-16T15:13:42.932Z,100938.69
2023-03-16T15:18:47.031Z,100935.25
2023-03-16T15:23:52.611Z,100933.91
2023-03-16T15:28:57.413Z,100936.31
2023-03-16T15:34:01.320Z,100938.02
2023-03-16T15:39:05.951Z,100941.77
2023-03-16T15:44:13.338Z,100941.84
2023-03-16T15:49:18.882Z,100938.88
2023-03-16T15:54:25.020Z,100939.91
2023-03-16T15:59:36.839Z,100940.39
2023-03-16T16:04:41.837Z,100946.64
2023-03-16T16:09:45.769Z,100948.55
2023-03-16T16:14:49.988Z,100950.25
2023-03-16T16:19:55.609Z,100951.19
2023-03-16T16:24:59.847Z,100954.42
2023-03-16T16:30:17.757Z,100957.33
2023-03-16T16:35:25.159Z,100954.50
2023-03-16T16:40:38.367Z,100955.66
2023-03-16T16:45:43.908Z,100958.01
2023-03-16T16:50:48.031Z,100958.57
2023-03-16T16:55:54.189Z,100968.42
2023-03-16T17:00:59.230Z,100970.69
2023-03-16T17:06:07.168Z,100967.23
2023-03-16T17:11:41.103Z,100973.10
2023-03-16T17:16:52.826Z,100972.82
2023-03-16T17:21:59.305Z,100972.86
2023-03-16T17:27:04.948Z,100975.89
2023-03-16T17:32:24.379Z,100986.43
2023-03-16T17:37:33.880Z,100987.09
2023-03-16T17:42:49.168Z,100991.20
2023-03-16T17:47:59.697Z,100993.19
2023-03-16T17:53:06.034Z,100994.80
2023-03-16T17:58:32.173Z,101000.45
2023-03-16T18:03:38.017Z,101007.35
2023-03-16T18:13:48.484Z,101011.31
2023-03-16T18:18:58.252Z,101009.92
2023-03-16T18:24:03.417Z,101012.35
2023-03-16T18:29:11.619Z,101012.39
2023-03-16T18:34:28.462Z,101014.98
2023-03-16T18:39:36.811Z,101024.23
2023-03-16T18:44:52.669Z,101019.99
2023-03-16T18:49:59.910Z,101022.30
2023-03-16T18:55:08.073Z,101015.32
2023-03-16T19:00:27.642Z,101012.64
2023-03-16T19:05:40.328Z,101010.64
2023-03-16T19:10:54.416Z,101009.48
2023-03-16T19:16:01.905Z,101011.98
2023-03-16T19:21:22.785Z,101015.96
2023-03-16T19:26:29.987Z,101014.04
2023-03-16T19:31:36.438Z,101017.20
2023-03-16T19:36:43.836Z,101018.55
2023-03-16T19:41:58.610Z,101020.80
2023-03-16T19:47:11.760Z,101022.11
2023-03-16T19:52:28.337Z,101023.48
2023-03-16T19:57:35.231Z,101025.55
2023-03-16T20:02:42.422Z,101034.59
2023-03-16T20:07:52.287Z,101035.80
2023-03-16T20:13:00.255Z,101038.72
2023-03-16T20:18:15.393Z,101037.51
2023-03-16T20:23:26.409Z,101033.11
2023-03-16T20:28:37.941Z,101030.51
2023-03-16T20:33:46.971Z,101026.55
2023-03-16T20:38:57.880Z,101026.16
2023-03-16T20:44:04.458Z,101027.63
2023-03-16T20:49:31.870Z,101028.75
2023-03-16T20:54:42.935Z,101018.21
2023-03-16T20:59:51.584Z,101018.30
2023-03-16T21:04:59.706Z,101022.56
2023-03-16T21:10:08.404Z,101022.04
2023-03-16T21:15:30.573Z,101020.56
2023-03-16T21:20:39.965Z,101015.48
2023-03-16T21:25:52.735Z,101007.11
2023-03-16T21:30:59.214Z,100996.88
2023-03-16T21:36:08.579Z,100988.73
2023-03-16T21:41:15.968Z,100982.63
2023-03-16T21:46:23.233Z,100981.89
2023-03-16T21:51:32.582Z,100982.42
2023-03-16T21:56:38.219Z,100978.90
2023-03-16T22:01:58.670Z,100976.81
2023-03-16T22:07:13.128Z,100975.09
2023-03-16T22:12:19.386Z,100979.88
2023-03-16T22:17:23.776Z,100981.47
2023-03-16T22:22:31.724Z,100987.39
2023-03-16T22:27:36.681Z,100986.89
2023-03-16T22:32:42.129Z,100982.89
2023-03-16T22:37:51.178Z,100980.80
2023-03-16T22:42:56.762Z,100989.52
2023-03-16T22:48:05.978Z,100991.73
2023-03-16T22:53:14.736Z,100984.63
2023-03-16T22:58:47.972Z,100981.12
2023-03-16T23:03:54.102Z,100987.14
2023-03-16T23:08:59.708Z,100996.63
2023-03-16T23:14:07.689Z,101006.01
2023-03-16T23:19:31.202Z,101018.11
2023-03-16T23:24:37.216Z,101027.85
2023-03-16T23:29:42.058Z,101032.05
2023-03-16T23:34:46.743Z,101033.25
2023-03-16T23:39:51.665Z,101024.80
2023-03-16T23:44:56.345Z,101014.81
2023-03-16T23:50:00.738Z,100994.59
2023-03-16T23:55:10.712Z,100984.56
